»·PEaware :: SWA1466 KRNO-KLAS

SWA1466 :: KRNO-KLAS

FLIGHT INFORMATION

Flight Status: Arrived
Operator:
Southwest Airlines
More flights by this operator :: More flights under this callsign
Pilot: Ben F. (2808)
Aircraft: BOEING 737-300
(B733)
More flights by this aircraft type
Origin: KRNO Reno/Tahoe Intl
United States
Destination: KLAS McCarran Intl
United States
More flights between these airports :: More routes between these airports
Route: ZEFFR6 PESKE LIDAT J92 BTY SUNST4
File this flight plan on PilotEdge
Remarks:
Altitude:
(Current/Filed)
33,000ft
Speed:
(Current/Filed)
426kts
Departed: 07-Aug-19 06:10 PM
Arrived: 07-Aug-19 07:09 PM
Distance/Time
Traveled:
300nm/0:59
Distance/Time
To Go:
Arrived

Flight Plot

Page will automatically refresh every two minutes.

Flight plan parsing failed; only flown route is shown


Map Options




Map Legend


Flown Route
Filed Route
Departure Airport
Arrival Airport
Navaid (VOR, NDB)
Fix

Horizontal Profiles

Position Reports

Time Latitude Longitude Heading Altitude Ground
Speed
07-Aug-19 17:48 39.504451 -119.773747 359 4422ft 0kts
07-Aug-19 17:49 39.504451 -119.773747 359 4422ft 0kts
07-Aug-19 17:50 39.504451 -119.773747 359 4422ft 0kts
07-Aug-19 17:51 39.504451 -119.773747 359 4422ft 0kts
07-Aug-19 17:52 39.504451 -119.773747 359 4422ft 0kts
07-Aug-19 17:53 39.504451 -119.773747 359 4422ft 0kts
07-Aug-19 17:54 39.504451 -119.773747 359 4422ft 0kts
07-Aug-19 17:55 39.504451 -119.773747 359 4422ft 0kts
07-Aug-19 17:56 39.504451 -119.773747 359 4422ft 0kts
07-Aug-19 17:57 39.504451 -119.773747 359 4422ft 0kts
07-Aug-19 17:58 39.504451 -119.773747 359 4422ft 0kts
07-Aug-19 17:59 39.503879 -119.773780 21 4422ft 2kts
07-Aug-19 18:00 39.503648 -119.773996 52 4422ft 0kts
07-Aug-19 18:01 39.503648 -119.773996 52 4422ft 0kts
07-Aug-19 18:02 39.503736 -119.772599 90 4422ft 5kts
07-Aug-19 18:03 39.503733 -119.772248 90 4422ft 0kts
07-Aug-19 18:05 39.503732 -119.772176 90 4422ft 2kts
07-Aug-19 18:06 39.507314 -119.771491 359 4422ft 17kts
07-Aug-19 18:07 39.512049 -119.771498 0 4422ft 15kts
07-Aug-19 18:08 39.513737 -119.770350 89 4422ft 0kts
07-Aug-19 18:09 39.513737 -119.770027 90 4422ft 7kts
07-Aug-19 18:10 39.498239 -119.769273 178 4422ft 154kts
07-Aug-19 18:11 39.445941 -119.767438 171 5844ft 210kts
07-Aug-19 18:12 39.388320 -119.767708 181 7895ft 230kts
07-Aug-19 18:13 39.315606 -119.758107 150 9382ft 294kts
07-Aug-19 18:14 39.256570 -119.678260 134 11852ft 320kts
07-Aug-19 18:15 39.194053 -119.588045 134 13922ft 351kts
07-Aug-19 18:16 39.124805 -119.494178 138 15968ft 363kts
07-Aug-19 18:17 39.051026 -119.402639 138 18078ft 372kts
07-Aug-19 18:18 38.977866 -119.311749 138 20182ft 381kts
07-Aug-19 18:19 38.900015 -119.215368 139 22171ft 391kts
07-Aug-19 18:20 38.822686 -119.120303 138 23959ft 399kts
07-Aug-19 18:21 38.742808 -119.018520 135 25625ft 409kts
07-Aug-19 18:22 38.663831 -118.910877 135 27189ft 417kts
07-Aug-19 18:23 38.583438 -118.801648 135 28910ft 418kts
07-Aug-19 18:24 38.503841 -118.693893 135 30713ft 412kts
07-Aug-19 18:24 38.438068 -118.605134 136 31942ft 409kts
07-Aug-19 18:26 38.346471 -118.481943 136 33127ft 411kts
07-Aug-19 18:27 38.266775 -118.372115 137 33139ft 421kts
07-Aug-19 18:27 38.202232 -118.285772 137 33157ft 421kts
07-Aug-19 18:28 38.121147 -118.178138 137 33155ft 421kts
07-Aug-19 18:30 38.025330 -118.051514 137 33157ft 422kts
07-Aug-19 18:30 37.956999 -117.961524 137 33149ft 422kts
07-Aug-19 18:31 37.878608 -117.858724 137 33117ft 422kts
07-Aug-19 18:33 37.782766 -117.733567 137 33117ft 421kts
07-Aug-19 18:33 37.714727 -117.644866 137 33109ft 420kts
07-Aug-19 18:34 37.632697 -117.538261 138 33114ft 420kts
07-Aug-19 18:35 37.550777 -117.432142 138 33110ft 418kts
07-Aug-19 18:36 37.474420 -117.333524 139 33090ft 417kts
07-Aug-19 18:37 37.386650 -117.239775 151 33113ft 408kts
07-Aug-19 18:38 37.291940 -117.160397 150 33111ft 407kts
07-Aug-19 18:39 37.197025 -117.080027 150 33069ft 406kts
07-Aug-19 18:40 37.104105 -117.001541 151 33003ft 393kts
07-Aug-19 18:41 37.013769 -116.925534 151 33001ft 383kts
07-Aug-19 18:42 36.925514 -116.851594 151 32962ft 381kts
07-Aug-19 18:43 36.839708 -116.780385 151 32314ft 385kts
07-Aug-19 18:44 36.749217 -116.707338 150 30312ft 391kts
07-Aug-19 18:45 36.655719 -116.633891 150 28329ft 401kts
07-Aug-19 18:46 36.558851 -116.559688 151 26329ft 411kts
07-Aug-19 18:47 36.504663 -116.435778 107 24334ft 430kts
07-Aug-19 18:48 36.470498 -116.301056 111 22361ft 416kts
07-Aug-19 18:49 36.405925 -116.187221 133 20384ft 398kts
07-Aug-19 18:50 36.334145 -116.086693 132 18453ft 373kts
07-Aug-19 18:51 36.266489 -115.991836 132 16527ft 353kts
07-Aug-19 18:52 36.204783 -115.904779 127 15985ft 321kts
07-Aug-19 18:53 36.168819 -115.801047 112 15122ft 322kts
07-Aug-19 18:54 36.135892 -115.698143 113 13986ft 317kts
07-Aug-19 18:55 36.103058 -115.596533 113 12869ft 313kts
07-Aug-19 18:56 36.070645 -115.496399 113 11751ft 300kts
07-Aug-19 18:57 36.040734 -115.404247 113 10603ft 278kts
07-Aug-19 18:58 36.026573 -115.311741 96 10509ft 282kts
07-Aug-19 18:59 36.020418 -115.214431 96 9092ft 275kts
07-Aug-19 19:00 36.015374 -115.121292 95 7584ft 265kts
07-Aug-19 19:01 36.010539 -115.029943 95 6196ft 253kts
07-Aug-19 19:02 36.006309 -114.946131 95 5360ft 240kts
07-Aug-19 19:03 36.051632 -114.909688 340 4909ft 232kts
07-Aug-19 19:04 36.074363 -114.973041 267 4686ft 207kts
07-Aug-19 19:05 36.073825 -115.036672 267 3632ft 167kts
07-Aug-19 19:06 36.073816 -115.090032 265 2759ft 152kts
07-Aug-19 19:07 36.073616 -115.139837 267 2148ft 109kts
07-Aug-19 19:08 36.074714 -115.150603 302 2148ft 18kts
07-Aug-19 19:09 36.077958 -115.149651 95 2148ft 15kts
07-Aug-19 19:10 36.078764 -115.146007 16 2148ft 9kts
07-Aug-19 19:11 36.079774 -115.146267 338 2148ft 0kts
07-Aug-19 19:12 36.079779 -115.146270 339 2148ft 0kts
07-Aug-19 19:13 36.079779 -115.146270 339 2148ft 0kts
07-Aug-19 19:14 36.079779 -115.146270 339 2148ft 0kts
07-Aug-19 19:15 36.079779 -115.146270 339 2148ft 0kts
07-Aug-19 19:16 36.079779 -115.146269 339 2148ft 0kts
07-Aug-19 19:17 36.079779 -115.146270 339 2148ft 0kts
07-Aug-19 19:18 36.079779 -115.146269 339 2148ft 0kts
07-Aug-19 19:19 36.079779 -115.146270 339 2148ft 0kts
07-Aug-19 19:20 36.079779 -115.146270 339 2148ft 0kts
07-Aug-19 19:21 36.079779 -115.146270 339 2148ft 0kts
07-Aug-19 19:22 36.079779 -115.146269 339 2148ft 0kts

Navigation Log

Ident Type
Flight plan parsing failed, navigation log unavailable